Aviation Digital Data Service (ADDS)

Output produced by METARs form (0828 UTC 24 October 2014)
found at http://aviationweather.gov/adds/metars/
 
KIAH 240520Z 2406/2512 VRB04KT P6SM FEW150 
     FM241400 03006KT P6SM SKC 
     FM250100 VRB02KT P6SM SKC